Terminal Aerodrome Forecast
Issued by NWS Green Bay, WI

Home | Current Version | Previous Version | Graphics & Text | Print | Product List | Glossary On
Versions: 1 2 3 4 5 6 7 8 9 10 11 12 13 14 15 16 17 18 19 20 21 22 23 24 25 26 27 28 29 30 31 32 33 34 35 36 37 38 39 40 41 42
000
FTUS43 KGRB 191500 AAA
TAFGRB
TAF AMD
KGRB 191502Z 1915/2012 19012G20KT P6SM SCT008 SCT250
     FM191600 19014G22KT P6SM BKN250
     FM200000 19009KT P6SM BKN100 BKN250
     FM200600 21008KT 5SM BR SCT045 BKN100
      TEMPO 2009/2012 3SM -TSRA OVC035CB=

USA.gov is the U.S. government's official web portal to all federal, state and local government web resources and services.